Time;durP1;ratioP1;P1;durP2;ratioP2;P2;SDS_P1;SDS_P2;PMS_P1;PMS_P2;Temp;Humidity;BMP_temperature;BMP_pressure;BME280_temperature;BME280_humidity;BME280_pressure;Samples;Min_cycle;Max_cycle;Signal;HPM_P1;HPM_P2
2022/12/25 00:01:38;;;;;;;;;;;5.70;99.90;;;;;;5069637;28;19948;-70
2022/12/25 00:04:03;;;;;;;;;;;5.70;99.90;;;;;;4998947;28;20592;-70
2022/12/25 00:06:29;;;;;;;;;;;5.80;99.90;;;;;;4968425;28;19930;-70
2022/12/25 00:08:54;;;;;;;;;;;5.70;99.90;;;;;;4987401;28;19922;-70
2022/12/25 00:11:20;;;;;;;;;;;5.80;99.90;;;;;;5085565;27;19930;-70
2022/12/25 00:13:46;;;;;;;;;;;5.80;99.90;;;;;;4985342;28;20012;-70
2022/12/25 00:16:14;;;;;;;;;;;5.80;99.90;;;;;;5067664;28;19972;-70
2022/12/25 00:18:40;;;;;;;;;;;5.80;99.90;;;;;;4982844;28;19929;-70
2022/12/25 00:21:05;;;;;;;;;;;5.80;99.90;;;;;;4985736;28;19921;-70
2022/12/25 00:23:32;;;;;;;;;;;5.80;99.90;;;;;;5069568;28;19922;-70
2022/12/25 00:25:57;;;;;;;;;;;5.80;99.90;;;;;;5086147;28;19921;-69
2022/12/25 00:28:23;;;;;;;;;;;5.70;99.90;;;;;;4987997;28;19979;-70
2022/12/25 00:30:49;;;;;;;;;;;5.70;99.90;;;;;;5067403;28;20016;-70
2022/12/25 00:33:15;;;;;;;;;;;5.70;99.90;;;;;;5002255;28;19944;-70
2022/12/25 00:35:40;;;;;;;;;;;5.60;99.90;;;;;;4984333;28;19922;-70
2022/12/25 00:38:06;;;;;;;;;;;5.60;99.90;;;;;;5052289;28;19951;-70
2022/12/25 00:40:32;;;;;;;;;;;5.50;99.90;;;;;;5053053;28;19974;-70
2022/12/25 00:42:57;;;;;;;;;;;5.40;99.90;;;;;;5065978;28;20370;-70
2022/12/25 00:45:23;;;;;;;;;;;5.30;99.90;;;;;;4983948;28;19921;-70
2022/12/25 00:47:48;;;;;;;;;;;5.30;99.90;;;;;;4996350;28;20373;-70
2022/12/25 00:50:14;;;;;;;;;;;5.20;99.90;;;;;;5084627;28;19922;-70
2022/12/25 00:52:40;;;;;;;;;;;5.20;99.90;;;;;;5066292;28;19928;-70
2022/12/25 00:55:05;;;;;;;;;;;5.20;99.90;;;;;;5083963;28;19930;-70
2022/12/25 00:57:32;;;;;;;;;;;5.10;99.90;;;;;;4990820;28;20016;-70
2022/12/25 00:59:58;;;;;;;;;;;5.10;99.90;;;;;;4985857;28;19922;-70
2022/12/25 01:02:23;;;;;;;;;;;5.10;99.90;;;;;;4988725;28;19922;-70
2022/12/25 01:04:50;;;;;;;;;;;5.10;99.90;;;;;;5081883;28;19925;-70
2022/12/25 01:07:16;;;;;;;;;;;5.10;99.90;;;;;;4967731;28;19980;-71
2022/12/25 01:12:26;;;;;;;;;;;5.20;99.90;;;;;;4983331;28;19926;-69
2022/12/25 01:14:52;;;;;;;;;;;5.10;99.90;;;;;;5067594;28;20426;-70
2022/12/25 01:17:18;;;;;;;;;;;5.10;99.90;;;;;;4983566;28;20009;-70
2022/12/25 01:19:43;;;;;;;;;;;5.10;99.90;;;;;;4986861;28;20390;-70
2022/12/25 01:22:10;;;;;;;;;;;5.80;99.90;;;;;;5081415;28;20361;-69
2022/12/25 01:24:35;;;;;;;;;;;5.00;99.90;;;;;;4986069;28;19922;-68
2022/12/25 01:27:01;;;;;;;;;;;5.00;99.90;;;;;;5067017;28;19940;-68
2022/12/25 01:29:26;;;;;;;;;;;5.00;99.90;;;;;;5081755;27;19921;-69
2022/12/25 01:31:52;;;;;;;;;;;5.00;99.90;;;;;;5074187;28;19926;-68
2022/12/25 01:34:18;;;;;;;;;;;5.00;99.90;;;;;;4983462;28;19922;-69
2022/12/25 01:36:43;;;;;;;;;;;5.00;99.90;;;;;;5050574;28;20401;-68
2022/12/25 01:39:09;;;;;;;;;;;5.10;99.90;;;;;;4984141;28;20003;-69
2022/12/25 01:41:34;;;;;;;;;;;5.10;99.90;;;;;;4985113;28;19922;-68
2022/12/25 01:44:05;;;;;;;;;;;5.20;99.90;;;;;;4984023;28;19926;-68
2022/12/25 01:46:31;;;;;;;;;;;5.20;99.90;;;;;;4985703;28;20013;-68
2022/12/25 01:48:59;;;;;;;;;;;4.60;99.90;;;;;;5067074;28;20094;-68
2022/12/25 01:51:27;;;;;;;;;;;5.40;99.90;;;;;;5068166;28;19961;-68
2022/12/25 01:53:54;;;;;;;;;;;5.60;99.90;;;;;;4981536;28;20059;-68
2022/12/25 01:56:20;;;;;;;;;;;5.60;99.90;;;;;;5066553;28;19930;-68
2022/12/25 01:58:45;;;;;;;;;;;5.60;99.90;;;;;;4987375;28;19922;-68
2022/12/25 02:01:11;;;;;;;;;;;5.60;99.90;;;;;;5085297;28;19930;-68
2022/12/25 02:03:38;;;;;;;;;;;5.70;99.90;;;;;;5067906;28;19929;-68
2022/12/25 02:06:04;;;;;;;;;;;5.70;99.90;;;;;;4982463;28;19928;-68
2022/12/25 02:08:30;;;;;;;;;;;5.70;99.90;;;;;;5081031;28;20310;-68
2022/12/25 02:10:56;;;;;;;;;;;5.70;99.90;;;;;;5051700;28;20505;-69
2022/12/25 02:13:21;;;;;;;;;;;5.70;99.90;;;;;;4983695;28;19929;-69
2022/12/25 02:16:04;;;;;;;;;;;5.70;99.90;;;;;;4987140;28;20414;-69
2022/12/25 02:18:45;;;;;;;;;;;5.70;99.90;;;;;;4997437;28;20030;-68
2022/12/25 02:21:10;;;;;;;;;;;5.70;99.90;;;;;;4984528;28;20082;-68
2022/12/25 02:23:45;;;;;;;;;;;5.70;99.90;;;;;;4981474;28;20481;-68
2022/12/25 02:26:16;;;;;;;;;;;5.70;99.90;;;;;;4983058;28;19966;-68
2022/12/25 02:28:57;;;;;;;;;;;5.60;99.90;;;;;;4981936;28;19926;-68
2022/12/25 02:31:45;;;;;;;;;;;5.60;99.90;;;;;;4983123;28;19930;-68
2022/12/25 02:34:24;;;;;;;;;;;5.60;99.90;;;;;;4984462;28;19922;-68
2022/12/25 02:37:07;;;;;;;;;;;5.60;99.90;;;;;;4963102;28;19926;-68
2022/12/25 02:39:56;;;;;;;;;;;5.60;99.90;;;;;;4981184;28;19948;-68
2022/12/25 03:07:38;;;;;;;;;;;5.90;99.90;;;;;;5087144;27;19926;-69
2022/12/25 03:13:00;;;;;;;;;;;5.90;99.90;;;;;;5087272;27;20107;-69
2022/12/25 03:18:12;;;;;;;;;;;6.00;99.90;;;;;;5072550;28;19921;-69
2022/12/25 03:28:55;;;;;;;;;;;6.00;99.90;;;;;;4987839;28;20355;-69
2022/12/25 03:31:25;;;;;;;;;;;6.10;99.90;;;;;;4996781;28;19968;-69
2022/12/25 03:41:03;;;;;;;;;;;6.10;99.90;;;;;;4991935;28;19922;-69
2022/12/25 04:37:46;;;;;;;;;;;6.70;99.90;;;;;;4986747;28;19921;-69
2022/12/25 04:40:12;;;;;;;;;;;6.70;99.90;;;;;;5067110;28;19922;-69
2022/12/25 04:42:37;;;;;;;;;;;6.70;99.90;;;;;;5072116;28;20481;-69
2022/12/25 04:45:03;;;;;;;;;;;6.80;99.90;;;;;;4983259;28;19976;-68
2022/12/25 04:47:28;;;;;;;;;;;6.80;99.90;;;;;;4965064;28;19957;-69
2022/12/25 04:49:54;;;;;;;;;;;6.80;99.90;;;;;;5069121;28;19922;-69
2022/12/25 04:52:19;;;;;;;;;;;6.80;99.90;;;;;;4981139;28;19944;-69
2022/12/25 04:54:45;;;;;;;;;;;6.90;99.90;;;;;;4987074;28;19925;-69
2022/12/25 04:57:11;;;;;;;;;;;6.90;99.90;;;;;;5081724;27;20512;-69
2022/12/25 04:59:36;;;;;;;;;;;6.90;99.90;;;;;;5084400;28;19926;-69
2022/12/25 05:02:02;;;;;;;;;;;6.90;99.90;;;;;;5046333;28;19984;-69
2022/12/25 05:04:27;;;;;;;;;;;6.90;99.90;;;;;;4981281;28;19968;-69
2022/12/25 05:06:53;;;;;;;;;;;6.90;99.90;;;;;;5058819;28;19941;-69
2022/12/25 05:09:19;;;;;;;;;;;6.90;99.90;;;;;;4963354;28;19933;-69
2022/12/25 05:11:44;;;;;;;;;;;7.00;99.90;;;;;;4971484;28;19922;-69
2022/12/25 05:14:10;;;;;;;;;;;7.00;99.90;;;;;;5067992;28;19922;-69
2022/12/25 05:16:35;;;;;;;;;;;7.00;99.90;;;;;;5067650;28;19922;-69
2022/12/25 05:19:01;;;;;;;;;;;7.10;99.90;;;;;;4987267;28;19933;-69
2022/12/25 05:21:26;;;;;;;;;;;7.00;99.90;;;;;;4968954;28;19941;-69
2022/12/25 05:23:52;;;;;;;;;;;7.10;99.90;;;;;;4982239;28;19922;-69
2022/12/25 05:26:22;;;;;;;;;;;7.20;99.90;;;;;;4966232;28;19922;-69
2022/12/25 05:28:48;;;;;;;;;;;7.20;99.90;;;;;;5086537;27;19926;-69
2022/12/25 05:31:14;;;;;;;;;;;7.20;99.90;;;;;;5084680;27;19925;-68
2022/12/25 05:33:39;;;;;;;;;;;7.20;99.90;;;;;;4987649;28;19929;-69
2022/12/25 05:36:06;;;;;;;;;;;7.20;99.90;;;;;;4983198;28;20406;-69
2022/12/25 05:38:31;;;;;;;;;;;7.20;99.90;;;;;;5070501;28;19929;-69
2022/12/25 05:40:57;;;;;;;;;;;7.30;99.90;;;;;;4969974;28;20401;-69
2022/12/25 05:43:23;;;;;;;;;;;7.30;99.90;;;;;;4983305;28;19942;-69
2022/12/25 05:45:48;;;;;;;;;;;7.30;99.90;;;;;;5067123;28;20215;-69
2022/12/25 05:48:15;;;;;;;;;;;7.40;99.90;;;;;;4986288;28;20044;-68
2022/12/25 05:50:40;;;;;;;;;;;7.40;99.90;;;;;;4988478;28;20051;-69
2022/12/25 05:53:07;;;;;;;;;;;7.40;99.90;;;;;;4982620;28;20020;-69
2022/12/25 05:55:39;;;;;;;;;;;7.50;99.90;;;;;;5082566;28;19937;-70
2022/12/25 05:58:06;;;;;;;;;;;7.50;99.90;;;;;;4991818;28;20437;-70
2022/12/25 06:00:32;;;;;;;;;;;7.60;99.90;;;;;;4984326;28;19926;-69
2022/12/25 06:02:57;;;;;;;;;;;7.60;99.90;;;;;;5088108;28;19937;-70
2022/12/25 06:05:23;;;;;;;;;;;7.60;99.90;;;;;;4982918;28;19921;-69
2022/12/25 06:07:49;;;;;;;;;;;7.60;99.90;;;;;;4965968;28;19929;-69
2022/12/25 06:10:14;;;;;;;;;;;7.60;99.90;;;;;;4974114;28;19926;-69
2022/12/25 06:12:40;;;;;;;;;;;7.70;99.90;;;;;;4966503;28;20165;-69
2022/12/25 06:15:06;;;;;;;;;;;7.70;99.90;;;;;;4984401;28;19929;-69
2022/12/25 06:17:31;;;;;;;;;;;7.70;99.90;;;;;;5087019;28;20362;-69
2022/12/25 06:19:57;;;;;;;;;;;7.70;99.90;;;;;;5069630;28;19925;-69
2022/12/25 06:22:26;;;;;;;;;;;7.70;99.90;;;;;;4983173;28;19922;-69
2022/12/25 06:24:52;;;;;;;;;;;7.70;99.90;;;;;;5068619;28;19922;-69
2022/12/25 06:27:18;;;;;;;;;;;7.70;99.90;;;;;;5050126;28;20296;-69
2022/12/25 06:29:43;;;;;;;;;;;7.70;99.90;;;;;;4984685;28;19922;-69
2022/12/25 06:32:09;;;;;;;;;;;7.70;99.90;;;;;;4985418;28;20356;-69
2022/12/25 06:34:34;;;;;;;;;;;7.80;99.90;;;;;;4980545;28;19936;-69
2022/12/25 06:37:03;;;;;;;;;;;7.80;99.90;;;;;;5067657;28;19922;-69
2022/12/25 06:39:29;;;;;;;;;;;7.80;99.90;;;;;;4971788;28;19925;-69
2022/12/25 06:41:54;;;;;;;;;;;7.80;99.90;;;;;;4987736;28;20379;-69
2022/12/25 06:44:20;;;;;;;;;;;7.80;99.90;;;;;;4992287;28;19988;-69
2022/12/25 06:46:46;;;;;;;;;;;7.70;99.90;;;;;;4983608;28;20004;-69
2022/12/25 06:49:12;;;;;;;;;;;7.70;99.90;;;;;;4985608;28;20122;-69
2022/12/25 06:51:38;;;;;;;;;;;7.70;99.90;;;;;;5087182;28;19929;-69
2022/12/25 06:54:03;;;;;;;;;;;7.70;99.90;;;;;;5055075;28;19926;-69
2022/12/25 06:56:29;;;;;;;;;;;7.70;99.90;;;;;;4987891;28;20072;-69
2022/12/25 06:58:56;;;;;;;;;;;7.70;99.90;;;;;;5088400;28;19922;-69
2022/12/25 07:01:23;;;;;;;;;;;7.70;99.90;;;;;;5086142;27;19937;-69
2022/12/25 07:03:50;;;;;;;;;;;7.70;99.90;;;;;;4988195;28;19930;-69
2022/12/25 07:06:16;;;;;;;;;;;7.70;99.90;;;;;;4983975;28;20306;-68
2022/12/25 07:08:41;;;;;;;;;;;7.60;99.90;;;;;;5086284;27;19932;-69
2022/12/25 07:11:07;;;;;;;;;;;7.60;99.90;;;;;;4967033;28;19936;-69
2022/12/25 07:13:33;;;;;;;;;;;7.50;99.90;;;;;;5085564;27;19929;-69
2022/12/25 07:16:00;;;;;;;;;;;7.50;99.90;;;;;;5086462;27;19996;-69
2022/12/25 07:18:26;;;;;;;;;;;7.50;99.90;;;;;;5068879;28;19922;-69
2022/12/25 07:20:51;;;;;;;;;;;7.40;99.90;;;;;;4984745;28;19928;-69
2022/12/25 07:23:17;;;;;;;;;;;7.40;99.90;;;;;;4995088;28;19930;-69
2022/12/25 07:25:42;;;;;;;;;;;7.30;99.90;;;;;;4987325;28;19922;-69
2022/12/25 07:28:08;;;;;;;;;;;7.30;99.90;;;;;;5053539;28;19932;-69
2022/12/25 07:30:34;;;;;;;;;;;7.30;99.90;;;;;;5073988;28;20405;-69
2022/12/25 07:32:59;;;;;;;;;;;7.30;99.90;;;;;;4985572;28;19926;-68
2022/12/25 07:35:25;;;;;;;;;;;7.40;99.90;;;;;;4987805;28;19926;-68
2022/12/25 07:37:51;;;;;;;;;;;7.20;99.90;;;;;;4968405;28;19957;-69
2022/12/25 07:40:16;;;;;;;;;;;7.30;99.90;;;;;;4988350;28;19922;-69
2022/12/25 07:42:42;;;;;;;;;;;7.30;99.90;;;;;;5088479;27;19922;-69
2022/12/25 07:45:08;;;;;;;;;;;7.40;99.90;;;;;;4985164;28;19922;-69
2022/12/25 07:47:33;;;;;;;;;;;7.40;99.90;;;;;;5083244;27;19926;-69
2022/12/25 07:49:59;;;;;;;;;;;7.40;99.90;;;;;;5083876;27;20461;-70
2022/12/25 07:52:24;;;;;;;;;;;7.40;99.90;;;;;;4995829;28;20291;-70
2022/12/25 07:54:50;;;;;;;;;;;7.50;99.90;;;;;;4990750;28;19922;-69
2022/12/25 07:57:18;;;;;;;;;;;7.40;99.90;;;;;;4985226;28;20284;-70
2022/12/25 07:59:44;;;;;;;;;;;7.50;99.90;;;;;;5086517;27;19926;-70
2022/12/25 08:02:10;;;;;;;;;;;7.50;99.90;;;;;;4976179;28;19930;-69
2022/12/25 08:04:35;;;;;;;;;;;7.40;99.90;;;;;;5019874;28;19922;-69
2022/12/25 08:07:01;;;;;;;;;;;7.50;99.90;;;;;;4987207;28;19925;-69
2022/12/25 08:09:26;;;;;;;;;;;7.50;99.90;;;;;;4983986;28;19961;-69
2022/12/25 08:11:52;;;;;;;;;;;7.40;99.90;;;;;;4988108;28;19922;-69
2022/12/25 08:14:18;;;;;;;;;;;7.50;99.90;;;;;;4983723;28;19948;-69
2022/12/25 08:16:45;;;;;;;;;;;7.40;99.90;;;;;;4993244;28;19928;-69
2022/12/25 08:19:10;;;;;;;;;;;7.40;99.90;;;;;;5066422;28;20269;-69
2022/12/25 08:21:36;;;;;;;;;;;7.40;99.90;;;;;;4988782;28;19928;-70
2022/12/25 08:24:02;;;;;;;;;;;7.40;99.90;;;;;;4982165;28;19975;-69
2022/12/25 08:26:27;;;;;;;;;;;7.40;99.90;;;;;;5088236;27;19973;-69
2022/12/25 08:28:53;;;;;;;;;;;7.40;99.90;;;;;;4986671;28;19948;-70
2022/12/25 08:31:20;;;;;;;;;;;7.40;99.90;;;;;;4986389;28;19926;-69
2022/12/25 08:33:47;;;;;;;;;;;7.40;99.90;;;;;;4984812;28;19929;-70
2022/12/25 08:36:13;;;;;;;;;;;7.40;99.90;;;;;;4972885;28;19921;-70
2022/12/25 08:38:39;;;;;;;;;;;7.40;99.90;;;;;;4986908;28;20275;-69
2022/12/25 08:41:05;;;;;;;;;;;7.40;99.90;;;;;;4987059;28;19922;-69
2022/12/25 08:43:31;;;;;;;;;;;7.50;99.90;;;;;;4979726;28;19976;-69
2022/12/25 08:45:56;;;;;;;;;;;7.50;99.90;;;;;;4985814;28;19953;-69
2022/12/25 08:48:23;;;;;;;;;;;7.50;99.90;;;;;;4990748;28;19980;-70
2022/12/25 08:50:50;;;;;;;;;;;7.50;99.90;;;;;;5091641;28;19922;-69
2022/12/25 08:53:19;;;;;;;;;;;7.60;99.90;;;;;;4989825;28;19922;-69
2022/12/25 08:55:44;;;;;;;;;;;7.60;99.90;;;;;;5072820;28;19995;-69
2022/12/25 08:58:10;;;;;;;;;;;7.60;99.90;;;;;;4986457;28;19971;-69
2022/12/25 09:00:36;;;;;;;;;;;7.70;99.90;;;;;;5078261;28;19922;-69
2022/12/25 09:03:02;;;;;;;;;;;7.70;99.90;;;;;;4972837;28;19929;-69
2022/12/25 09:05:28;;;;;;;;;;;7.70;99.90;;;;;;4966861;28;19928;-70
2022/12/25 09:07:54;;;;;;;;;;;7.80;99.90;;;;;;5071167;28;19934;-69
2022/12/25 09:10:23;;;;;;;;;;;7.80;99.90;;;;;;5080268;27;19922;-69
2022/12/25 09:12:49;;;;;;;;;;;7.80;99.90;;;;;;4983503;28;19922;-69
2022/12/25 09:15:15;;;;;;;;;;;7.90;99.90;;;;;;5068569;28;19974;-69
2022/12/25 09:17:50;;;;;;;;;;;7.90;99.90;;;;;;5086546;27;19922;-69
2022/12/25 09:20:21;;;;;;;;;;;7.90;99.90;;;;;;5065901;28;20409;-70
2022/12/25 09:22:47;;;;;;;;;;;7.90;99.90;;;;;;4982616;28;19922;-69
2022/12/25 09:25:14;;;;;;;;;;;8.00;99.90;;;;;;4981899;28;19941;-69
2022/12/25 09:27:42;;;;;;;;;;;8.00;99.90;;;;;;4981154;28;20035;-69
2022/12/25 09:30:08;;;;;;;;;;;8.00;99.90;;;;;;4982557;28;19929;-69
2022/12/25 09:32:33;;;;;;;;;;;8.00;99.90;;;;;;5089096;27;19921;-69
2022/12/25 09:34:59;;;;;;;;;;;8.00;99.90;;;;;;4983967;28;19930;-70
2022/12/25 09:37:25;;;;;;;;;;;8.00;99.90;;;;;;5084734;27;20379;-69
2022/12/25 09:39:54;;;;;;;;;;;8.00;99.90;;;;;;4972793;28;19930;-70
2022/12/25 09:42:21;;;;;;;;;;;8.10;99.90;;;;;;4979358;28;19999;-69
2022/12/25 09:44:52;;;;;;;;;;;8.10;99.90;;;;;;4968591;28;19941;-69
2022/12/25 09:47:24;;;;;;;;;;;8.10;99.90;;;;;;4983677;28;19926;-69
2022/12/25 09:49:50;;;;;;;;;;;8.10;99.90;;;;;;4985327;28;20008;-69
2022/12/25 09:52:34;;;;;;;;;;;8.20;99.90;;;;;;4988511;28;20244;-69
2022/12/25 09:55:26;;;;;;;;;;;8.20;99.90;;;;;;4979819;28;20167;-69
2022/12/25 09:57:58;;;;;;;;;;;8.20;99.90;;;;;;4991119;28;19927;-69
2022/12/25 10:00:30;;;;;;;;;;;8.30;99.90;;;;;;4993309;28;19929;-69
2022/12/25 10:02:59;;;;;;;;;;;8.30;99.90;;;;;;5068717;28;19980;-69
2022/12/25 10:05:31;;;;;;;;;;;8.30;99.90;;;;;;4985067;28;19926;-70
2022/12/25 10:08:15;;;;;;;;;;;8.30;99.90;;;;;;4983111;28;20005;-69
2022/12/25 10:10:51;;;;;;;;;;;8.40;99.90;;;;;;4979564;28;20017;-69
2022/12/25 10:13:26;;;;;;;;;;;8.40;99.90;;;;;;5057681;28;19922;-69
2022/12/25 10:16:19;;;;;;;;;;;8.40;99.90;;;;;;5079011;28;19979;-69
2022/12/25 10:18:58;;;;;;;;;;;8.40;99.90;;;;;;4988511;28;19988;-69
2022/12/25 10:21:26;;;;;;;;;;;8.40;99.90;;;;;;4982358;28;20384;-69
2022/12/25 10:24:11;;;;;;;;;;;8.40;99.90;;;;;;5069010;28;19922;-69
2022/12/25 10:26:37;;;;;;;;;;;8.40;99.90;;;;;;5084914;28;19972;-70
2022/12/25 10:29:11;;;;;;;;;;;8.40;99.90;;;;;;4982558;28;19930;-69
2022/12/25 10:31:42;;;;;;;;;;;8.40;99.90;;;;;;4976604;28;20001;-69
2022/12/25 10:34:11;;;;;;;;;;;8.40;99.90;;;;;;4994232;28;20619;-69
2022/12/25 10:36:37;;;;;;;;;;;8.40;99.90;;;;;;4983314;28;19936;-69
2022/12/25 10:39:03;;;;;;;;;;;8.40;99.90;;;;;;5084516;28;20021;-69
2022/12/25 10:41:46;;;;;;;;;;;8.40;99.90;;;;;;5080661;28;19933;-69
2022/12/25 10:44:23;;;;;;;;;;;8.40;99.90;;;;;;4985692;28;19937;-70
2022/12/25 10:46:50;;;;;;;;;;;8.40;99.90;;;;;;5074348;28;19928;-70
2022/12/25 10:49:22;;;;;;;;;;;8.40;99.90;;;;;;4991416;28;19936;-69
2022/12/25 10:51:48;;;;;;;;;;;8.40;99.90;;;;;;4975532;28;19930;-69
2022/12/25 10:57:08;;;;;;;;;;;8.40;99.90;;;;;;4982721;28;19961;-70
2022/12/25 10:59:35;;;;;;;;;;;8.50;99.90;;;;;;4978723;28;19964;-70
2022/12/25 11:02:14;;;;;;;;;;;8.50;99.90;;;;;;4985497;28;20295;-70
2022/12/25 11:04:40;;;;;;;;;;;8.60;99.90;;;;;;4967542;28;20087;-70
2022/12/25 11:07:15;;;;;;;;;;;8.60;99.90;;;;;;4986453;28;19969;-70
2022/12/25 11:09:47;;;;;;;;;;;8.60;99.90;;;;;;4974880;28;19969;-70
2022/12/25 11:12:17;;;;;;;;;;;8.60;99.90;;;;;;4984781;28;19921;-70
2022/12/25 11:14:50;;;;;;;;;;;8.70;99.90;;;;;;4982802;28;20017;-70
2022/12/25 11:17:20;;;;;;;;;;;8.60;99.90;;;;;;4981618;28;19922;-70
2022/12/25 11:19:53;;;;;;;;;;;8.70;99.90;;;;;;4981189;28;20437;-70
2022/12/25 11:22:22;;;;;;;;;;;8.70;99.90;;;;;;4984692;28;19932;-69
2022/12/25 11:24:49;;;;;;;;;;;8.70;99.90;;;;;;4970209;28;19918;-70
2022/12/25 11:27:33;;;;;;;;;;;8.70;99.90;;;;;;4994339;28;20378;-70
2022/12/25 11:30:04;;;;;;;;;;;8.60;99.90;;;;;;5073504;28;19930;-70
2022/12/25 11:32:36;;;;;;;;;;;8.60;99.90;;;;;;4992184;28;19982;-70
2022/12/25 11:35:02;;;;;;;;;;;8.70;99.90;;;;;;5002986;28;19989;-70
2022/12/25 11:37:34;;;;;;;;;;;8.60;99.90;;;;;;5068125;28;19976;-69
2022/12/25 11:40:00;;;;;;;;;;;8.60;99.90;;;;;;5085098;27;19959;-70
2022/12/25 11:42:28;;;;;;;;;;;8.70;99.90;;;;;;4985851;28;20381;-69
2022/12/25 11:45:07;;;;;;;;;;;8.60;99.90;;;;;;4988215;28;20021;-70
2022/12/25 11:47:43;;;;;;;;;;;8.60;99.90;;;;;;4985831;28;19971;-70
2022/12/25 11:50:24;;;;;;;;;;;8.60;99.90;;;;;;4983313;28;20314;-70
2022/12/25 11:52:52;;;;;;;;;;;8.60;99.90;;;;;;5078455;27;19934;-70
2022/12/25 11:55:29;;;;;;;;;;;8.60;99.90;;;;;;4971777;28;19925;-70
2022/12/25 11:57:56;;;;;;;;;;;8.50;99.90;;;;;;4986678;28;20357;-70
2022/12/25 12:00:22;;;;;;;;;;;8.50;99.90;;;;;;4989472;28;19931;-69
2022/12/25 12:02:57;;;;;;;;;;;8.60;99.90;;;;;;5068660;28;19955;-69
2022/12/25 12:05:42;;;;;;;;;;;8.50;99.90;;;;;;5016490;28;19928;-70
2022/12/25 12:08:10;;;;;;;;;;;8.50;99.90;;;;;;4985366;28;19974;-69
2022/12/25 12:10:36;;;;;;;;;;;8.50;99.90;;;;;;4967164;28;19926;-69
2022/12/25 12:13:10;;;;;;;;;;;8.50;99.90;;;;;;4986346;28;19922;-69
2022/12/25 12:15:43;;;;;;;;;;;8.50;99.90;;;;;;4988487;28;19969;-69
2022/12/25 12:18:21;;;;;;;;;;;8.50;99.90;;;;;;5088707;28;19926;-69
2022/12/25 12:20:59;;;;;;;;;;;8.50;99.90;;;;;;4984007;28;19922;-69
2022/12/25 12:23:28;;;;;;;;;;;8.50;99.90;;;;;;4983560;28;20362;-69
2022/12/25 12:25:57;;;;;;;;;;;8.50;99.90;;;;;;4989173;28;19933;-69
2022/12/25 12:28:27;;;;;;;;;;;8.60;99.90;;;;;;4984584;28;19926;-70
2022/12/25 12:31:06;;;;;;;;;;;8.50;99.90;;;;;;4981184;28;20383;-69
2022/12/25 12:33:55;;;;;;;;;;;8.50;99.90;;;;;;4966534;28;20064;-69
2022/12/25 12:36:26;;;;;;;;;;;8.50;99.90;;;;;;5053217;28;19922;-69
2022/12/25 12:38:56;;;;;;;;;;;8.50;99.90;;;;;;5082468;27;20016;-69
2022/12/25 12:41:26;;;;;;;;;;;8.10;99.90;;;;;;4983629;28;19933;-69
2022/12/25 12:43:59;;;;;;;;;;;8.50;99.90;;;;;;5063057;28;20326;-70
2022/12/25 12:46:27;;;;;;;;;;;8.50;99.90;;;;;;5080625;27;19933;-70
2022/12/25 12:49:06;;;;;;;;;;;8.50;99.90;;;;;;4984489;28;19934;-69
2022/12/25 12:51:47;;;;;;;;;;;8.60;99.90;;;;;;4980111;28;20465;-69
2022/12/25 12:54:23;;;;;;;;;;;8.50;99.90;;;;;;4979472;28;19933;-69
2022/12/25 12:56:58;;;;;;;;;;;8.50;99.90;;;;;;4997032;28;19941;-69
2022/12/25 12:59:37;;;;;;;;;;;8.50;99.90;;;;;;5080400;28;19925;-68
2022/12/25 13:02:24;;;;;;;;;;;8.40;99.90;;;;;;4981665;28;20363;-69
2022/12/25 13:04:57;;;;;;;;;;;8.40;99.90;;;;;;5060994;28;19929;-69
2022/12/25 13:07:31;;;;;;;;;;;8.40;99.90;;;;;;4998690;28;19963;-69
2022/12/25 13:09:56;;;;;;;;;;;8.40;99.90;;;;;;4988015;28;19922;-69
2022/12/25 13:12:25;;;;;;;;;;;8.40;99.90;;;;;;4976904;28;19926;-70
2022/12/25 13:14:54;;;;;;;;;;;8.40;99.90;;;;;;4993498;28;19922;-69
2022/12/25 13:17:27;;;;;;;;;;;8.40;99.90;;;;;;4984400;28;19975;-69
2022/12/25 13:20:01;;;;;;;;;;;8.40;99.90;;;;;;5080859;27;19922;-69
2022/12/25 13:22:42;;;;;;;;;;;8.40;99.90;;;;;;4979097;28;20013;-69
2022/12/25 13:25:17;;;;;;;;;;;8.30;99.90;;;;;;4988582;28;20914;-69
2022/12/25 13:27:46;;;;;;;;;;;8.30;99.90;;;;;;4985227;28;20363;-69
2022/12/25 13:30:13;;;;;;;;;;;8.30;99.90;;;;;;4966218;28;19967;-69
2022/12/25 13:32:44;;;;;;;;;;;8.30;99.90;;;;;;4967043;28;19922;-69
2022/12/25 13:35:22;;;;;;;;;;;8.30;99.90;;;;;;4986190;28;20043;-70
2022/12/25 13:37:54;;;;;;;;;;;8.20;99.90;;;;;;4988556;28;19921;-69
2022/12/25 13:40:24;;;;;;;;;;;8.20;99.90;;;;;;5043737;28;19922;-69
2022/12/25 13:42:56;;;;;;;;;;;8.20;99.90;;;;;;4983684;28;19928;-69
2022/12/25 13:45:23;;;;;;;;;;;8.20;99.90;;;;;;5055823;28;19926;-69
2022/12/25 13:47:50;;;;;;;;;;;8.20;99.90;;;;;;5074879;27;19936;-69
2022/12/25 13:50:33;;;;;;;;;;;8.10;99.90;;;;;;4952897;28;20434;-69
2022/12/25 13:53:15;;;;;;;;;;;8.10;99.90;;;;;;4969805;28;19922;-69
2022/12/25 13:55:51;;;;;;;;;;;8.10;99.90;;;;;;5054976;28;20080;-70
2022/12/25 13:58:25;;;;;;;;;;;8.10;99.90;;;;;;5078118;28;19929;-69
2022/12/25 14:00:55;;;;;;;;;;;8.10;99.90;;;;;;4979243;28;20020;-70
2022/12/25 14:03:23;;;;;;;;;;;8.10;99.90;;;;;;4990249;28;20366;-70
2022/12/25 14:05:56;;;;;;;;;;;8.10;99.90;;;;;;4988411;28;19929;-70
2022/12/25 14:08:27;;;;;;;;;;;8.00;99.90;;;;;;5077681;28;19934;-70
2022/12/25 14:10:53;;;;;;;;;;;8.00;99.90;;;;;;4987551;28;20404;-70
2022/12/25 14:13:21;;;;;;;;;;;8.00;99.90;;;;;;4989428;28;20492;-70
2022/12/25 14:15:47;;;;;;;;;;;8.00;99.90;;;;;;4986481;28;20294;-70
2022/12/25 14:18:20;;;;;;;;;;;8.00;99.90;;;;;;5072230;28;19926;-70
2022/12/25 14:21:04;;;;;;;;;;;8.00;99.90;;;;;;5070194;28;19926;-70
2022/12/25 14:23:39;;;;;;;;;;;8.00;99.90;;;;;;4982352;28;19921;-70
2022/12/25 14:26:05;;;;;;;;;;;8.00;99.90;;;;;;4973089;28;19922;-70
2022/12/25 14:28:33;;;;;;;;;;;8.00;99.90;;;;;;5080649;28;20646;-70
2022/12/25 14:31:02;;;;;;;;;;;8.00;99.90;;;;;;4989166;28;19961;-70
2022/12/25 14:33:32;;;;;;;;;;;8.00;99.90;;;;;;5087779;28;19922;-70
2022/12/25 14:36:01;;;;;;;;;;;8.00;99.90;;;;;;4984519;28;19922;-70
2022/12/25 14:38:29;;;;;;;;;;;8.00;99.90;;;;;;5003719;28;19975;-71
2022/12/25 14:41:05;;;;;;;;;;;7.90;99.90;;;;;;4977524;28;20028;-71
2022/12/25 14:43:39;;;;;;;;;;;7.90;99.90;;;;;;5084518;28;19933;-71
2022/12/25 14:46:05;;;;;;;;;;;7.90;99.90;;;;;;4982014;28;19921;-71
2022/12/25 14:48:31;;;;;;;;;;;7.90;99.90;;;;;;4986807;28;19932;-71
2022/12/25 14:51:00;;;;;;;;;;;7.90;99.90;;;;;;5071417;28;19928;-71
2022/12/25 14:53:44;;;;;;;;;;;7.90;99.90;;;;;;4983839;28;20403;-71
2022/12/25 14:56:15;;;;;;;;;;;7.90;99.90;;;;;;5075279;28;19988;-70
2022/12/25 14:58:44;;;;;;;;;;;7.90;99.90;;;;;;4978480;28;20013;-69
2022/12/25 15:01:27;;;;;;;;;;;7.90;99.90;;;;;;4987817;28;19923;-69
2022/12/25 15:04:03;;;;;;;;;;;7.90;99.90;;;;;;4984585;28;20134;-69
2022/12/25 15:06:31;;;;;;;;;;;7.90;99.90;;;;;;4988643;28;20016;-69
2022/12/25 15:09:05;;;;;;;;;;;7.90;99.90;;;;;;5089690;27;19938;-69
2022/12/25 15:11:31;;;;;;;;;;;7.90;99.90;;;;;;4988650;28;20153;-69
2022/12/25 15:14:00;;;;;;;;;;;7.90;99.90;;;;;;4991572;28;19930;-70
2022/12/25 15:16:31;;;;;;;;;;;7.90;99.90;;;;;;5079265;27;19922;-69
2022/12/25 15:18:59;;;;;;;;;;;7.90;99.90;;;;;;4968320;28;20012;-69
2022/12/25 15:21:27;;;;;;;;;;;7.90;99.90;;;;;;5065228;28;19927;-69
2022/12/25 15:23:56;;;;;;;;;;;7.90;99.90;;;;;;4958314;28;19923;-69
2022/12/25 15:26:25;;;;;;;;;;;7.90;99.90;;;;;;5056803;28;19987;-69
2022/12/25 15:29:01;;;;;;;;;;;7.90;99.90;;;;;;5063820;27;19951;-69
2022/12/25 15:31:29;;;;;;;;;;;7.90;99.90;;;;;;4992888;28;19937;-70
2022/12/25 15:33:56;;;;;;;;;;;7.90;99.90;;;;;;5062401;28;19937;-70
2022/12/25 15:36:23;;;;;;;;;;;7.80;99.90;;;;;;4990777;28;20005;-69
2022/12/25 15:38:52;;;;;;;;;;;7.80;99.90;;;;;;5089654;27;19922;-70
2022/12/25 15:44:06;;;;;;;;;;;7.90;99.90;;;;;;4990728;28;19965;-69
2022/12/25 15:46:32;;;;;;;;;;;7.80;99.90;;;;;;4987075;28;19983;-70
2022/12/25 15:48:59;;;;;;;;;;;7.80;99.90;;;;;;5083899;28;19926;-70
2022/12/25 15:51:34;;;;;;;;;;;7.80;99.90;;;;;;4987408;28;19932;-70
2022/12/25 15:54:06;;;;;;;;;;;7.80;99.90;;;;;;4989256;28;20333;-70
2022/12/25 15:56:47;;;;;;;;;;;7.80;99.90;;;;;;5074062;28;19921;-70
2022/12/25 15:59:16;;;;;;;;;;;7.80;99.90;;;;;;4988654;28;19922;-70
2022/12/25 16:01:43;;;;;;;;;;;7.80;99.90;;;;;;5089095;27;20282;-70
2022/12/25 16:04:11;;;;;;;;;;;7.80;99.90;;;;;;4987206;28;19922;-70
2022/12/25 16:06:36;;;;;;;;;;;7.80;99.90;;;;;;4987617;28;19926;-69
2022/12/25 16:09:05;;;;;;;;;;;7.80;99.90;;;;;;5070922;28;19991;-69
2022/12/25 16:11:31;;;;;;;;;;;7.80;99.90;;;;;;5076066;28;19954;-70
2022/12/25 16:13:57;;;;;;;;;;;7.80;99.90;;;;;;4990634;28;19957;-70
2022/12/25 16:16:25;;;;;;;;;;;7.80;99.90;;;;;;5041932;28;20422;-69
2022/12/25 16:18:58;;;;;;;;;;;7.80;99.90;;;;;;4989431;28;19922;-70
2022/12/25 16:21:23;;;;;;;;;;;7.80;99.90;;;;;;5069999;28;19997;-70
2022/12/25 16:23:49;;;;;;;;;;;7.80;99.90;;;;;;5084273;27;19969;-70
2022/12/25 16:26:16;;;;;;;;;;;7.80;99.90;;;;;;5056637;28;19922;-70
2022/12/25 16:28:47;;;;;;;;;;;7.80;99.90;;;;;;4989367;28;19933;-69
2022/12/25 16:31:13;;;;;;;;;;;7.80;99.90;;;;;;4986765;28;20352;-69